Time;durP1;ratioP1;P1;durP2;ratioP2;P2;SDS_P1;SDS_P2;PMS_P1;PMS_P2;Temp;Humidity;BMP_temperature;BMP_pressure;BME280_temperature;BME280_humidity;BME280_pressure;Samples;Min_cycle;Max_cycle;Signal;HPM_P1;HPM_P2
2023/12/23 00:00:56;;;;;;;28.58;27.08;;;;;;;;;;5032708;28;20034;-58
2023/12/23 00:03:21;;;;;;;29.02;27.52;;;;;;;;;;5034901;28;20033;-58
2023/12/23 00:05:47;;;;;;;27.88;26.42;;;;;;;;;;5033898;28;20099;-59
2023/12/23 00:08:12;;;;;;;29.48;27.88;;;;;;;;;;5030459;28;20452;-58
2023/12/23 00:10:38;;;;;;;28.05;26.55;;;;;;;;;;5031443;28;20033;-58
2023/12/23 00:13:03;;;;;;;29.05;27.55;;;;;;;;;;5034270;28;20068;-58
2023/12/23 00:15:28;;;;;;;29.75;28.15;;;;;;;;;;5030626;28;20033;-58
2023/12/23 00:17:54;;;;;;;31.13;29.52;;;;;;;;;;5033210;28;20041;-59
2023/12/23 00:20:19;;;;;;;29.35;27.85;;;;;;;;;;5034774;28;20040;-58
2023/12/23 00:22:44;;;;;;;29.38;27.88;;;;;;;;;;5030909;28;20025;-58
2023/12/23 00:25:10;;;;;;;28.35;26.85;;;;;;;;;;5033316;28;20375;-58
2023/12/23 00:27:35;;;;;;;27.75;26.30;;;;;;;;;;5033828;28;20033;-59
2023/12/23 00:30:01;;;;;;;27.30;25.90;;;;;;;;;;5032279;28;20041;-59
2023/12/23 00:32:26;;;;;;;27.70;26.20;;;;;;;;;;5033811;28;20033;-58
2023/12/23 00:34:51;;;;;;;26.90;25.50;;;;;;;;;;5032991;28;21080;-58
2023/12/23 00:37:17;;;;;;;26.60;25.20;;;;;;;;;;5031970;28;20041;-58
2023/12/23 00:39:42;;;;;;;28.58;27.08;;;;;;;;;;5031126;28;20033;-58
2023/12/23 00:42:07;;;;;;;29.40;27.83;;;;;;;;;;5030911;28;20419;-58
2023/12/23 00:44:33;;;;;;;27.80;26.35;;;;;;;;;;5030254;28;20099;-58
2023/12/23 00:46:58;;;;;;;27.27;25.88;;;;;;;;;;5032908;28;20037;-58
2023/12/23 00:49:24;;;;;;;26.27;24.88;;;;;;;;;;5014592;28;20378;-58
2023/12/23 00:51:49;;;;;;;27.67;26.25;;;;;;;;;;5034035;28;20502;-58
2023/12/23 00:54:17;;;;;;;26.88;25.48;;;;;;;;;;5033575;28;20033;-58
2023/12/23 00:56:42;;;;;;;29.25;27.75;;;;;;;;;;5031561;28;20030;-58
2023/12/23 00:59:07;;;;;;;27.77;26.27;;;;;;;;;;5029508;28;20568;-62
2023/12/23 01:01:33;;;;;;;29.20;27.65;;;;;;;;;;5032368;28;20038;-63
2023/12/23 01:03:58;;;;;;;28.38;26.88;;;;;;;;;;5030380;28;20565;-63
2023/12/23 01:06:23;;;;;;;28.83;27.33;;;;;;;;;;5032895;28;20029;-63
2023/12/23 01:08:49;;;;;;;32.10;30.40;;;;;;;;;;5028570;28;20071;-64
2023/12/23 01:11:14;;;;;;;30.30;28.73;;;;;;;;;;5031602;28;20041;-63
2023/12/23 01:13:40;;;;;;;27.90;26.42;;;;;;;;;;5043512;28;20037;-59
2023/12/23 01:16:05;;;;;;;29.40;27.90;;;;;;;;;;5032774;28;20053;-63
2023/12/23 01:18:30;;;;;;;27.52;26.02;;;;;;;;;;5030490;28;20033;-63
2023/12/23 01:20:56;;;;;;;27.38;25.95;;;;;;;;;;5032131;28;20033;-63
2023/12/23 01:23:21;;;;;;;29.67;28.15;;;;;;;;;;5030584;28;20356;-63
2023/12/23 01:25:46;;;;;;;30.88;29.27;;;;;;;;;;5030436;28;20049;-59
2023/12/23 01:28:12;;;;;;;30.98;29.38;;;;;;;;;;5031632;28;20033;-58
2023/12/23 01:30:38;;;;;;;30.70;29.10;;;;;;;;;;5031695;28;20033;-63
2023/12/23 01:33:04;;;;;;;31.48;29.88;;;;;;;;;;5031756;28;20067;-63
2023/12/23 01:35:29;;;;;;;30.50;28.90;;;;;;;;;;5030317;28;20029;-63
2023/12/23 01:37:55;;;;;;;30.90;29.20;;;;;;;;;;5029688;28;20589;-63
2023/12/23 01:40:20;;;;;;;29.63;28.13;;;;;;;;;;5030689;28;20037;-63
2023/12/23 01:42:46;;;;;;;29.40;27.90;;;;;;;;;;5031752;28;20044;-63
2023/12/23 01:45:11;;;;;;;29.15;27.65;;;;;;;;;;5032698;28;20037;-63
2023/12/23 01:47:41;;;;;;;30.90;29.30;;;;;;;;;;5031194;28;20108;-63
2023/12/23 01:50:09;;;;;;;30.63;29.02;;;;;;;;;;5030139;28;20033;-63
2023/12/23 01:52:36;;;;;;;31.45;29.75;;;;;;;;;;5029531;28;20148;-63
2023/12/23 01:55:03;;;;;;;30.05;28.48;;;;;;;;;;5031861;28;20036;-59
2023/12/23 01:57:28;;;;;;;30.63;29.02;;;;;;;;;;5029981;28;20079;-63
2023/12/23 01:59:54;;;;;;;31.08;29.48;;;;;;;;;;5032199;28;20469;-63
2023/12/23 02:02:21;;;;;;;32.17;30.52;;;;;;;;;;5033060;28;20043;-63
2023/12/23 02:04:46;;;;;;;34.03;32.28;;;;;;;;;;5029649;28;20123;-62
2023/12/23 02:07:12;;;;;;;36.28;34.22;;;;;;;;;;5030554;28;20037;-64
2023/12/23 02:09:37;;;;;;;33.90;31.80;;;;;;;;;;5029054;28;20136;-63
2023/12/23 02:12:39;;;;;;;33.55;31.80;;;;;;;;;;5033306;28;20036;-63
2023/12/23 02:15:09;;;;;;;34.63;32.83;;;;;;;;;;5028387;28;20127;-63
2023/12/23 02:17:35;;;;;;;31.67;30.07;;;;;;;;;;5030008;28;20040;-63
2023/12/23 02:20:00;;;;;;;33.85;32.10;;;;;;;;;;5029494;28;20276;-63
2023/12/23 02:22:25;;;;;;;34.22;32.45;;;;;;;;;;5030929;28;20143;-62
2023/12/23 02:24:51;;;;;;;35.80;34.00;;;;;;;;;;5029487;28;20048;-59
2023/12/23 02:27:21;;;;;;;36.65;34.75;;;;;;;;;;5030127;28;20033;-59
2023/12/23 02:29:47;;;;;;;35.53;33.72;;;;;;;;;;5026132;28;20022;-59
2023/12/23 02:32:14;;;;;;;37.90;35.97;;;;;;;;;;5028861;28;20643;-63
2023/12/23 02:34:41;;;;;;;35.97;34.17;;;;;;;;;;5028587;28;20508;-60
2023/12/23 02:37:06;;;;;;;34.47;32.67;;;;;;;;;;5030965;28;20508;-59
2023/12/23 02:39:31;;;;;;;36.85;34.95;;;;;;;;;;5030914;28;20040;-63
2023/12/23 02:41:57;;;;;;;36.83;34.92;;;;;;;;;;5030586;28;20041;-59
2023/12/23 02:44:22;;;;;;;38.63;36.30;;;;;;;;;;5028286;28;20025;-63
2023/12/23 02:46:48;;;;;;;36.53;34.63;;;;;;;;;;5033378;28;20037;-63
2023/12/23 02:49:13;;;;;;;38.72;36.72;;;;;;;;;;5032135;28;20067;-63
2023/12/23 02:51:38;;;;;;;39.03;37.05;;;;;;;;;;5033039;28;20068;-59
2023/12/23 02:54:04;;;;;;;40.00;37.95;;;;;;;;;;5031380;28;20033;-64
2023/12/23 02:56:30;;;;;;;39.35;37.25;;;;;;;;;;5028258;28;20091;-63
2023/12/23 02:58:56;;;;;;;38.10;36.15;;;;;;;;;;5030112;28;20040;-63
2023/12/23 03:01:21;;;;;;;40.13;38.08;;;;;;;;;;5026799;28;20052;-59
2023/12/23 03:03:46;;;;;;;39.47;37.47;;;;;;;;;;5031817;28;20045;-63
2023/12/23 03:06:14;;;;;;;37.65;35.75;;;;;;;;;;5030158;28;20084;-59
2023/12/23 03:08:39;;;;;;;39.78;37.75;;;;;;;;;;5029501;28;20547;-63
2023/12/23 03:11:04;;;;;;;43.72;41.53;;;;;;;;;;5031330;28;20029;-59
2023/12/23 03:13:30;;;;;;;41.80;39.70;;;;;;;;;;5028559;28;20064;-59
2023/12/23 03:15:55;;;;;;;40.03;38.03;;;;;;;;;;5030017;28;20040;-59
2023/12/23 03:18:20;;;;;;;39.58;37.55;;;;;;;;;;5029805;28;20053;-59
2023/12/23 03:20:46;;;;;;;38.65;36.65;;;;;;;;;;5029925;28;20120;-59
2023/12/23 03:23:11;;;;;;;38.95;36.95;;;;;;;;;;5028131;28;20123;-63
2023/12/23 03:25:36;;;;;;;38.72;36.72;;;;;;;;;;5028127;28;20026;-62
2023/12/23 03:28:02;;;;;;;38.58;36.58;;;;;;;;;;5030275;28;20049;-62
2023/12/23 03:30:27;;;;;;;41.72;39.60;;;;;;;;;;5028696;28;20057;-59
2023/12/23 03:32:52;;;;;;;38.35;36.35;;;;;;;;;;5027946;28;20033;-62
2023/12/23 03:35:18;;;;;;;38.85;36.85;;;;;;;;;;5032198;28;20091;-62
2023/12/23 03:37:45;;;;;;;39.35;37.35;;;;;;;;;;5035621;28;20700;-59
2023/12/23 03:40:11;;;;;;;39.08;37.08;;;;;;;;;;5034887;28;20136;-59
2023/12/23 03:42:38;;;;;;;38.83;36.67;;;;;;;;;;5032077;28;20124;-59
2023/12/23 03:45:05;;;;;;;40.03;38.00;;;;;;;;;;5032585;28;20042;-59
2023/12/23 03:47:30;;;;;;;40.72;38.63;;;;;;;;;;5033351;28;20521;-59
2023/12/23 03:49:56;;;;;;;38.80;36.80;;;;;;;;;;5032431;28;20033;-63
2023/12/23 03:52:21;;;;;;;37.63;35.72;;;;;;;;;;5032289;28;20044;-62
2023/12/23 03:54:46;;;;;;;36.28;34.38;;;;;;;;;;5032522;28;20141;-62
2023/12/23 03:57:12;;;;;;;36.63;34.72;;;;;;;;;;5030141;28;20044;-63
2023/12/23 03:59:39;;;;;;;35.45;33.35;;;;;;;;;;5031850;28;20047;-63
2023/12/23 04:02:04;;;;;;;37.92;35.63;;;;;;;;;;5034744;28;20037;-63
2023/12/23 04:04:29;;;;;;;35.03;33.22;;;;;;;;;;5033721;28;20041;-63
2023/12/23 04:06:55;;;;;;;35.53;33.70;;;;;;;;;;5031541;28;20029;-63
2023/12/23 04:09:20;;;;;;;37.55;35.65;;;;;;;;;;5033037;28;20037;-59
2023/12/23 04:11:46;;;;;;;36.00;34.15;;;;;;;;;;5031647;28;20037;-62
2023/12/23 04:14:11;;;;;;;37.30;35.40;;;;;;;;;;5033382;28;20038;-63
2023/12/23 04:16:39;;;;;;;36.00;34.13;;;;;;;;;;5033082;28;21137;-63
2023/12/23 04:19:05;;;;;;;39.40;37.35;;;;;;;;;;5030737;28;20056;-64
2023/12/23 04:21:30;;;;;;;35.42;33.63;;;;;;;;;;5029658;28;20037;-59
2023/12/23 04:23:56;;;;;;;38.15;36.03;;;;;;;;;;5033911;28;20664;-59
2023/12/23 04:26:21;;;;;;;37.50;35.60;;;;;;;;;;5033125;28;20034;-59
2023/12/23 04:28:47;;;;;;;39.42;37.42;;;;;;;;;;5034638;28;20120;-59
2023/12/23 04:31:12;;;;;;;39.22;37.22;;;;;;;;;;5034135;28;20029;-59
2023/12/23 04:33:37;;;;;;;37.60;35.67;;;;;;;;;;5037901;28;20029;-59
2023/12/23 04:36:03;;;;;;;39.90;37.90;;;;;;;;;;5037285;28;20103;-60
2023/12/23 04:38:28;;;;;;;39.50;37.45;;;;;;;;;;5036727;28;20520;-59
2023/12/23 04:40:54;;;;;;;40.67;38.58;;;;;;;;;;5033077;28;20535;-59
2023/12/23 04:43:19;;;;;;;41.40;39.30;;;;;;;;;;5032192;28;20056;-63
2023/12/23 04:45:44;;;;;;;42.88;40.28;;;;;;;;;;5032816;28;20047;-63
2023/12/23 04:48:10;;;;;;;39.85;37.85;;;;;;;;;;5034124;28;20044;-59
2023/12/23 04:50:36;;;;;;;42.10;39.90;;;;;;;;;;5035566;28;20118;-63
2023/12/23 04:53:01;;;;;;;42.55;40.35;;;;;;;;;;5029032;28;20043;-59
2023/12/23 04:55:26;;;;;;;42.78;40.58;;;;;;;;;;5033348;28;20026;-63
2023/12/23 04:57:52;;;;;;;42.97;40.78;;;;;;;;;;5027418;28;21160;-59
2023/12/23 05:00:17;;;;;;;40.38;38.30;;;;;;;;;;5034788;28;20114;-63
2023/12/23 05:02:43;;;;;;;38.65;36.65;;;;;;;;;;5031796;28;20871;-59
2023/12/23 05:05:08;;;;;;;40.28;38.17;;;;;;;;;;5033567;28;20041;-59
2023/12/23 05:07:34;;;;;;;41.85;39.08;;;;;;;;;;5029715;28;20052;-59
2023/12/23 05:09:59;;;;;;;36.28;34.38;;;;;;;;;;5031089;28;20123;-59
2023/12/23 05:12:24;;;;;;;39.17;37.08;;;;;;;;;;5033042;28;20041;-58
2023/12/23 05:14:50;;;;;;;36.88;34.97;;;;;;;;;;5029506;28;20102;-63
2023/12/23 05:17:16;;;;;;;35.97;34.15;;;;;;;;;;5028461;28;20132;-59
2023/12/23 05:19:41;;;;;;;36.45;34.55;;;;;;;;;;5030361;28;20394;-62
2023/12/23 05:22:07;;;;;;;38.03;36.08;;;;;;;;;;5030563;28;20120;-59
2023/12/23 05:24:32;;;;;;;35.97;34.00;;;;;;;;;;5029685;28;20052;-58
2023/12/23 05:26:58;;;;;;;36.63;34.63;;;;;;;;;;5031713;28;20049;-58
2023/12/23 05:29:23;;;;;;;38.10;36.13;;;;;;;;;;5034787;28;20033;-58
2023/12/23 05:31:49;;;;;;;36.28;34.38;;;;;;;;;;5034076;28;20024;-59
2023/12/23 05:34:14;;;;;;;37.33;35.42;;;;;;;;;;5031394;28;20045;-59
2023/12/23 05:36:39;;;;;;;37.67;34.40;;;;;;;;;;5030578;28;20034;-62
2023/12/23 05:39:06;;;;;;;35.80;34.00;;;;;;;;;;5031089;28;20507;-59
2023/12/23 05:41:32;;;;;;;36.20;34.30;;;;;;;;;;5033934;28;20045;-59
2023/12/23 05:43:57;;;;;;;35.33;33.53;;;;;;;;;;5029224;28;20052;-59
2023/12/23 05:46:22;;;;;;;38.00;36.00;;;;;;;;;;5029243;28;20072;-62
2023/12/23 05:48:48;;;;;;;35.05;33.25;;;;;;;;;;5030087;28;20041;-63
2023/12/23 05:51:13;;;;;;;35.65;33.85;;;;;;;;;;5033451;28;20033;-59
2023/12/23 05:53:38;;;;;;;39.50;37.40;;;;;;;;;;5032722;28;20033;-62
2023/12/23 05:56:04;;;;;;;41.15;39.05;;;;;;;;;;5030152;28;20045;-62
2023/12/23 05:58:30;;;;;;;39.38;37.38;;;;;;;;;;5031041;28;20521;-60
2023/12/23 06:00:56;;;;;;;41.45;39.35;;;;;;;;;;5032566;28;20034;-62
2023/12/23 06:03:21;;;;;;;38.22;36.28;;;;;;;;;;5030747;28;20564;-59
2023/12/23 06:05:47;;;;;;;37.38;35.47;;;;;;;;;;5032439;28;20136;-62
2023/12/23 06:08:12;;;;;;;36.90;35.00;;;;;;;;;;5032709;28;20035;-63
2023/12/23 06:10:38;;;;;;;38.75;36.78;;;;;;;;;;5032923;28;20356;-59
2023/12/23 06:13:04;;;;;;;41.25;39.15;;;;;;;;;;5028482;28;20098;-59
2023/12/23 06:15:30;;;;;;;39.72;37.67;;;;;;;;;;5030894;28;20036;-58
2023/12/23 06:17:55;;;;;;;41.65;39.55;;;;;;;;;;5031625;28;20113;-59
2023/12/23 06:20:20;;;;;;;38.75;36.75;;;;;;;;;;5030943;28;20043;-59
2023/12/23 06:22:46;;;;;;;40.63;38.53;;;;;;;;;;5033508;28;20037;-62
2023/12/23 06:25:11;;;;;;;38.92;36.92;;;;;;;;;;5027516;28;20034;-59
2023/12/23 06:27:36;;;;;;;40.78;38.70;;;;;;;;;;5027208;28;20060;-58
2023/12/23 06:30:02;;;;;;;43.08;40.88;;;;;;;;;;5027004;28;20108;-63
2023/12/23 06:32:27;;;;;;;41.13;39.03;;;;;;;;;;5030699;28;20048;-65
2023/12/23 06:34:53;;;;;;;44.90;42.55;;;;;;;;;;5033909;28;20041;-61
2023/12/23 06:37:18;;;;;;;41.75;39.63;;;;;;;;;;5030483;28;20042;-60
2023/12/23 06:39:43;;;;;;;39.78;37.75;;;;;;;;;;5029105;28;20037;-59
2023/12/23 06:42:09;;;;;;;38.53;36.53;;;;;;;;;;5026603;28;20484;-59
2023/12/23 06:44:34;;;;;;;38.50;36.50;;;;;;;;;;5031108;28;20613;-64
2023/12/23 06:47:00;;;;;;;41.63;39.42;;;;;;;;;;5030228;28;20029;-59
2023/12/23 06:49:27;;;;;;;40.08;38.08;;;;;;;;;;5030632;28;20489;-60
2023/12/23 06:51:53;;;;;;;39.97;37.97;;;;;;;;;;5032909;28;20530;-59
2023/12/23 06:54:18;;;;;;;40.25;38.05;;;;;;;;;;5024340;28;20037;-59
2023/12/23 06:56:43;;;;;;;37.85;35.95;;;;;;;;;;5029109;28;20071;-59
2023/12/23 06:59:12;;;;;;;42.10;39.75;;;;;;;;;;5027888;28;20120;-59
2023/12/23 07:01:41;;;;;;;40.95;38.85;;;;;;;;;;5028895;28;20065;-60
2023/12/23 07:04:07;;;;;;;39.33;37.33;;;;;;;;;;5028797;28;20044;-61
2023/12/23 07:06:33;;;;;;;39.58;37.58;;;;;;;;;;5026859;28;20037;-60
2023/12/23 07:08:58;;;;;;;42.22;40.05;;;;;;;;;;5029935;28;20051;-60
2023/12/23 07:11:24;;;;;;;38.92;36.92;;;;;;;;;;5025805;28;20054;-60
2023/12/23 07:13:51;;;;;;;38.83;36.83;;;;;;;;;;5029939;28;20033;-60
2023/12/23 07:16:16;;;;;;;38.67;36.67;;;;;;;;;;5027060;28;20121;-61
2023/12/23 07:18:42;;;;;;;39.42;37.42;;;;;;;;;;5027351;28;20136;-59
2023/12/23 07:21:07;;;;;;;43.63;41.42;;;;;;;;;;5025348;28;20033;-60
2023/12/23 07:23:32;;;;;;;40.35;38.28;;;;;;;;;;5024622;28;20029;-60
2023/12/23 07:25:58;;;;;;;39.08;37.08;;;;;;;;;;5024922;28;20036;-61
2023/12/23 07:28:23;;;;;;;40.13;38.10;;;;;;;;;;5026100;28;20046;-60
2023/12/23 07:30:49;;;;;;;40.20;38.15;;;;;;;;;;5023331;28;20056;-60
2023/12/23 07:33:14;;;;;;;39.75;37.67;;;;;;;;;;5023874;28;20037;-60
2023/12/23 07:35:39;;;;;;;41.20;39.10;;;;;;;;;;5026204;28;20030;-58
2023/12/23 07:38:05;;;;;;;40.50;37.90;;;;;;;;;;5024357;28;20711;-59
2023/12/23 07:40:31;;;;;;;38.63;36.58;;;;;;;;;;5025821;28;20359;-60
2023/12/23 07:42:57;;;;;;;39.25;37.25;;;;;;;;;;5024623;28;20037;-59
2023/12/23 07:45:23;;;;;;;42.05;39.92;;;;;;;;;;5024725;28;20095;-59
2023/12/23 07:47:49;;;;;;;40.15;38.13;;;;;;;;;;5027554;28;20037;-60
2023/12/23 07:50:14;;;;;;;39.65;37.65;;;;;;;;;;5026272;28;20164;-60
2023/12/23 07:52:40;;;;;;;39.58;37.42;;;;;;;;;;5030642;28;20033;-60
2023/12/23 07:55:07;;;;;;;41.20;39.10;;;;;;;;;;5029442;28;20052;-60
2023/12/23 07:57:32;;;;;;;40.65;38.55;;;;;;;;;;5028741;28;20537;-60
2023/12/23 07:59:57;;;;;;;39.83;37.63;;;;;;;;;;5030211;28;20025;-60
2023/12/23 08:02:23;;;;;;;39.28;37.15;;;;;;;;;;5029115;28;20041;-60
2023/12/23 08:04:48;;;;;;;39.20;37.10;;;;;;;;;;5032721;28;20037;-60
2023/12/23 08:07:13;;;;;;;36.90;35.00;;;;;;;;;;5027574;28;20250;-61
2023/12/23 08:09:38;;;;;;;35.92;34.10;;;;;;;;;;5030285;28;20464;-61
2023/12/23 08:12:05;;;;;;;37.35;35.45;;;;;;;;;;5029090;28;20029;-60
2023/12/23 08:14:30;;;;;;;39.90;37.80;;;;;;;;;;5023752;28;20040;-61
2023/12/23 08:16:55;;;;;;;37.42;35.53;;;;;;;;;;5032933;28;20568;-60
2023/12/23 08:19:20;;;;;;;38.88;36.88;;;;;;;;;;5029050;28;20123;-60
2023/12/23 08:21:46;;;;;;;39.20;37.20;;;;;;;;;;5032046;28;20045;-61
2023/12/23 08:24:13;;;;;;;40.17;38.13;;;;;;;;;;5032220;28;20123;-59
2023/12/23 08:26:38;;;;;;;40.50;38.40;;;;;;;;;;5033678;28;20053;-60
2023/12/23 08:29:04;;;;;;;40.63;38.53;;;;;;;;;;5032218;28;20478;-60
2023/12/23 08:31:29;;;;;;;42.17;39.97;;;;;;;;;;5026787;28;20166;-60
2023/12/23 08:33:54;;;;;;;41.30;39.20;;;;;;;;;;5029798;28;20055;-60
2023/12/23 08:36:20;;;;;;;40.85;38.75;;;;;;;;;;5031015;28;20060;-60
2023/12/23 08:38:45;;;;;;;41.70;39.60;;;;;;;;;;5035255;28;20594;-59
2023/12/23 08:41:10;;;;;;;40.28;38.20;;;;;;;;;;5028314;28;20108;-59
2023/12/23 08:43:36;;;;;;;41.20;39.10;;;;;;;;;;5029544;28;20030;-59
2023/12/23 08:46:01;;;;;;;38.80;36.80;;;;;;;;;;5031545;28;20136;-60
2023/12/23 08:48:27;;;;;;;38.70;36.72;;;;;;;;;;5031904;28;20375;-59
2023/12/23 08:50:53;;;;;;;38.10;36.15;;;;;;;;;;5032888;28;21059;-60
2023/12/23 08:53:19;;;;;;;40.72;38.63;;;;;;;;;;5027448;28;20434;-60
2023/12/23 08:55:44;;;;;;;36.53;34.63;;;;;;;;;;5031604;28;20033;-59
2023/12/23 08:58:11;;;;;;;37.55;35.65;;;;;;;;;;5028245;28;20027;-60
2023/12/23 09:00:37;;;;;;;33.78;31.98;;;;;;;;;;5029719;28;20091;-59
2023/12/23 09:03:03;;;;;;;38.10;36.15;;;;;;;;;;5031927;28;20589;-60
2023/12/23 09:05:28;;;;;;;36.25;34.35;;;;;;;;;;5029370;28;20427;-60
2023/12/23 09:07:54;;;;;;;34.03;32.28;;;;;;;;;;5028400;28;20562;-59
2023/12/23 09:10:19;;;;;;;32.65;30.95;;;;;;;;;;5026835;28;20037;-59
2023/12/23 09:12:45;;;;;;;33.33;31.63;;;;;;;;;;5031450;28;20044;-59
2023/12/23 09:15:10;;;;;;;34.92;33.13;;;;;;;;;;5028866;28;20406;-59
2023/12/23 09:17:35;;;;;;;32.40;30.73;;;;;;;;;;5030648;28;20040;-58
2023/12/23 09:20:04;;;;;;;30.10;28.52;;;;;;;;;;5014211;28;20091;-59
2023/12/23 09:22:30;;;;;;;32.70;31.00;;;;;;;;;;5031341;28;20057;-60
2023/12/23 09:24:55;;;;;;;30.75;29.15;;;;;;;;;;5040288;28;20041;-60
2023/12/23 09:27:21;;;;;;;31.35;29.73;;;;;;;;;;5027975;28;20053;-59
2023/12/23 09:29:46;;;;;;;34.35;32.35;;;;;;;;;;5022676;28;20196;-60
2023/12/23 09:32:11;;;;;;;32.95;31.25;;;;;;;;;;5026892;28;20033;-60
2023/12/23 09:34:37;;;;;;;31.95;30.30;;;;;;;;;;5026424;28;20038;-59
2023/12/23 09:37:03;;;;;;;32.85;31.15;;;;;;;;;;5029006;28;20035;-60
2023/12/23 09:39:28;;;;;;;31.30;29.67;;;;;;;;;;5028152;28;20033;-60
2023/12/23 09:41:54;;;;;;;30.80;29.20;;;;;;;;;;5032606;28;20029;-60
2023/12/23 09:44:20;;;;;;;31.02;29.42;;;;;;;;;;5029030;28;20145;-59
2023/12/23 09:46:46;;;;;;;30.92;29.33;;;;;;;;;;5031919;28;20200;-59
2023/12/23 09:49:12;;;;;;;31.42;29.77;;;;;;;;;;5025760;28;20403;-60
2023/12/23 09:51:38;;;;;;;32.88;31.17;;;;;;;;;;5036009;28;20061;-60
2023/12/23 09:54:07;;;;;;;33.83;32.05;;;;;;;;;;5033296;28;20033;-60
2023/12/23 09:56:34;;;;;;;30.77;29.17;;;;;;;;;;5031254;28;20068;-59
2023/12/23 09:59:00;;;;;;;33.53;31.83;;;;;;;;;;5029014;28;20056;-59
2023/12/23 10:01:25;;;;;;;34.30;32.53;;;;;;;;;;5032656;28;21119;-60
2023/12/23 10:03:51;;;;;;;30.05;28.45;;;;;;;;;;5029727;28;20521;-59
2023/12/23 10:06:18;;;;;;;30.35;28.75;;;;;;;;;;5019773;28;20041;-59
2023/12/23 10:08:44;;;;;;;34.38;32.58;;;;;;;;;;5030616;28;20077;-59
2023/12/23 10:11:09;;;;;;;33.05;31.35;;;;;;;;;;5029178;28;20046;-59
2023/12/23 10:13:36;;;;;;;31.02;29.42;;;;;;;;;;5029986;28;20043;-62
2023/12/23 10:16:01;;;;;;;29.80;28.25;;;;;;;;;;5028504;28;20661;-59
2023/12/23 10:18:27;;;;;;;31.23;29.63;;;;;;;;;;5035396;28;20114;-59
2023/12/23 10:20:52;;;;;;;32.70;31.00;;;;;;;;;;5028674;28;20033;-59
2023/12/23 10:23:17;;;;;;;31.77;30.17;;;;;;;;;;5028395;28;20148;-59
2023/12/23 10:25:44;;;;;;;30.75;29.05;;;;;;;;;;5031372;28;20530;-62
2023/12/23 10:28:10;;;;;;;32.83;31.13;;;;;;;;;;5025415;28;20671;-62
2023/12/23 10:30:39;;;;;;;31.08;29.48;;;;;;;;;;5028370;28;20480;-59
2023/12/23 10:33:07;;;;;;;29.15;27.65;;;;;;;;;;5029239;28;20037;-61
2023/12/23 10:35:59;;;;;;;29.27;27.77;;;;;;;;;;5028006;28;20029;-62
2023/12/23 10:38:26;;;;;;;28.42;26.92;;;;;;;;;;5020829;28;20060;-60
2023/12/23 10:41:13;;;;;;;30.35;28.75;;;;;;;;;;5029656;28;20029;-62
2023/12/23 10:43:39;;;;;;;28.83;27.33;;;;;;;;;;5027126;28;20111;-61
2023/12/23 10:46:07;;;;;;;29.10;27.60;;;;;;;;;;5025371;28;20443;-59
2023/12/23 10:48:32;;;;;;;30.20;28.60;;;;;;;;;;5028787;28;20037;-62
2023/12/23 10:51:00;;;;;;;29.85;28.27;;;;;;;;;;5031441;28;20040;-62
2023/12/23 10:53:26;;;;;;;33.00;31.30;;;;;;;;;;5025439;28;20468;-59
2023/12/23 10:55:53;;;;;;;30.25;28.65;;;;;;;;;;5030274;28;20041;-58
2023/12/23 10:58:20;;;;;;;31.67;29.83;;;;;;;;;;5028092;28;20498;-59
2023/12/23 11:00:46;;;;;;;31.15;29.55;;;;;;;;;;5027936;28;20090;-58
2023/12/23 11:03:13;;;;;;;30.90;29.30;;;;;;;;;;5026529;28;20029;-59
2023/12/23 11:05:41;;;;;;;33.28;31.55;;;;;;;;;;5027272;28;20041;-61
2023/12/23 11:08:12;;;;;;;35.63;33.80;;;;;;;;;;5030070;28;20043;-61
2023/12/23 11:10:40;;;;;;;35.30;33.50;;;;;;;;;;5029702;28;20594;-61
2023/12/23 11:13:07;;;;;;;37.38;35.47;;;;;;;;;;5024809;28;20037;-62
2023/12/23 11:15:32;;;;;;;36.15;34.30;;;;;;;;;;5034746;28;20021;-59
2023/12/23 11:17:58;;;;;;;37.38;35.47;;;;;;;;;;5026781;28;20060;-58
2023/12/23 11:20:35;;;;;;;37.92;35.97;;;;;;;;;;5025324;28;20045;-59
2023/12/23 11:23:30;;;;;;;37.30;35.40;;;;;;;;;;5024862;28;20029;-62
2023/12/23 11:25:55;;;;;;;38.58;36.58;;;;;;;;;;5024437;28;20057;-59
2023/12/23 11:28:21;;;;;;;34.33;32.55;;;;;;;;;;5015267;28;20291;-63
2023/12/23 11:30:47;;;;;;;36.72;34.83;;;;;;;;;;5015274;28;20068;-62
2023/12/23 11:33:13;;;;;;;37.78;35.88;;;;;;;;;;5026177;28;20067;-60
2023/12/23 11:35:46;;;;;;;36.85;34.95;;;;;;;;;;5028556;28;20076;-60
2023/12/23 11:38:11;;;;;;;39.05;37.05;;;;;;;;;;5030736;28;20119;-62
2023/12/23 11:40:37;;;;;;;39.42;37.42;;;;;;;;;;5028592;28;20040;-63
2023/12/23 11:43:04;;;;;;;38.63;36.63;;;;;;;;;;5027452;28;20060;-62
2023/12/23 11:45:30;;;;;;;37.42;35.50;;;;;;;;;;5028886;28;20474;-60
2023/12/23 11:47:56;;;;;;;38.92;36.92;;;;;;;;;;5026926;28;20032;-60
2023/12/23 11:50:21;;;;;;;37.75;35.80;;;;;;;;;;5024750;28;20036;-60
2023/12/23 11:52:48;;;;;;;39.15;37.15;;;;;;;;;;5027606;28;20040;-60
2023/12/23 11:55:15;;;;;;;37.17;35.25;;;;;;;;;;5024914;28;20072;-60
2023/12/23 11:57:40;;;;;;;39.72;37.72;;;;;;;;;;5027938;28;20120;-62
2023/12/23 12:00:07;;;;;;;38.25;36.30;;;;;;;;;;5030403;28;20127;-62
2023/12/23 12:02:32;;;;;;;37.22;35.33;;;;;;;;;;5031747;28;20079;-60
2023/12/23 12:04:57;;;;;;;37.78;35.83;;;;;;;;;;5033051;28;20045;-60
2023/12/23 12:07:23;;;;;;;38.83;36.75;;;;;;;;;;5026441;28;20127;-62
2023/12/23 12:09:50;;;;;;;35.80;33.97;;;;;;;;;;5023706;28;20034;-62
2023/12/23 12:12:15;;;;;;;35.70;33.88;;;;;;;;;;5037992;28;20128;-62
2023/12/23 12:14:40;;;;;;;35.60;33.75;;;;;;;;;;5022490;28;20148;-62
2023/12/23 12:17:06;;;;;;;34.78;32.97;;;;;;;;;;5025281;28;20038;-62
2023/12/23 12:19:32;;;;;;;34.97;33.15;;;;;;;;;;5024589;28;20786;-60
2023/12/23 12:21:57;;;;;;;34.72;32.92;;;;;;;;;;5026217;28;20037;-60
2023/12/23 12:24:23;;;;;;;33.80;32.05;;;;;;;;;;5027143;28;20116;-63
2023/12/23 12:26:52;;;;;;;32.25;30.58;;;;;;;;;;5031028;28;20431;-63
2023/12/23 12:29:19;;;;;;;32.40;30.65;;;;;;;;;;5029861;28;20037;-59
2023/12/23 12:31:45;;;;;;;31.50;29.88;;;;;;;;;;5032300;28;20048;-59
2023/12/23 12:34:12;;;;;;;36.65;34.75;;;;;;;;;;5026613;28;20026;-64
2023/12/23 12:36:37;;;;;;;33.47;31.77;;;;;;;;;;5030842;28;20392;-63
2023/12/23 12:39:03;;;;;;;36.58;34.67;;;;;;;;;;5027543;28;20088;-64
2023/12/23 12:41:29;;;;;;;34.38;32.60;;;;;;;;;;5029303;28;20055;-58
2023/12/23 12:43:55;;;;;;;31.83;30.20;;;;;;;;;;5027339;28;20048;-59
2023/12/23 12:46:21;;;;;;;32.33;30.63;;;;;;;;;;5030947;28;20777;-60
2023/12/23 12:48:48;;;;;;;29.75;28.20;;;;;;;;;;5025871;28;20063;-64
2023/12/23 12:51:15;;;;;;;30.92;29.33;;;;;;;;;;5030284;28;20259;-64
2023/12/23 12:53:41;;;;;;;30.80;29.20;;;;;;;;;;5027472;28;20075;-56
2023/12/23 12:56:08;;;;;;;32.03;30.33;;;;;;;;;;5026624;28;20021;-52
2023/12/23 12:58:33;;;;;;;33.25;31.55;;;;;;;;;;5029547;28;20037;-56
2023/12/23 13:00:59;;;;;;;31.30;29.55;;;;;;;;;;5041168;28;20029;-57
2023/12/23 13:03:25;;;;;;;32.50;30.80;;;;;;;;;;5027783;28;20033;-53
2023/12/23 13:05:50;;;;;;;31.20;29.42;;;;;;;;;;5027216;28;20114;-55
2023/12/23 13:08:15;;;;;;;30.67;29.08;;;;;;;;;;5025210;28;20372;-55
2023/12/23 13:10:41;;;;;;;31.02;29.42;;;;;;;;;;5030560;28;20076;-54
2023/12/23 13:13:06;;;;;;;31.88;30.23;;;;;;;;;;5032157;28;20494;-52
2023/12/23 13:15:31;;;;;;;30.67;29.05;;;;;;;;;;5027717;28;20036;-57
2023/12/23 13:17:57;;;;;;;30.52;28.92;;;;;;;;;;5029850;28;20041;-53
2023/12/23 13:20:23;;;;;;;28.83;27.33;;;;;;;;;;5029532;28;20065;-52
2023/12/23 13:22:48;;;;;;;29.60;28.00;;;;;;;;;;5027926;28;20068;-56
2023/12/23 13:25:14;;;;;;;29.10;27.40;;;;;;;;;;5029945;28;20091;-57
2023/12/23 13:27:39;;;;;;;28.90;27.40;;;;;;;;;;5025363;28;20075;-56
2023/12/23 13:30:05;;;;;;;28.98;27.48;;;;;;;;;;5026997;28;20034;-56
2023/12/23 13:32:32;;;;;;;29.40;27.90;;;;;;;;;;5025863;28;20029;-52
2023/12/23 13:35:00;;;;;;;30.58;28.98;;;;;;;;;;5021597;28;20033;-52
2023/12/23 13:37:26;;;;;;;29.35;27.83;;;;;;;;;;5027904;28;20037;-54
2023/12/23 13:39:51;;;;;;;29.83;28.27;;;;;;;;;;5028032;28;20497;-53
2023/12/23 13:42:19;;;;;;;28.85;27.33;;;;;;;;;;5027592;28;20041;-56
2023/12/23 13:44:44;;;;;;;30.25;28.67;;;;;;;;;;5028882;28;22260;-54
2023/12/23 13:47:10;;;;;;;29.95;28.38;;;;;;;;;;5027137;28;20087;-55
2023/12/23 13:49:35;;;;;;;29.73;28.10;;;;;;;;;;5034949;28;20033;-55
2023/12/23 13:52:01;;;;;;;29.98;28.42;;;;;;;;;;5032300;28;20072;-52
2023/12/23 13:54:26;;;;;;;29.48;27.95;;;;;;;;;;5025219;28;20128;-54
2023/12/23 13:56:51;;;;;;;29.77;28.23;;;;;;;;;;5033462;28;20029;-56
2023/12/23 13:59:17;;;;;;;28.67;27.17;;;;;;;;;;5028570;28;20041;-56
2023/12/23 14:01:43;;;;;;;28.92;27.42;;;;;;;;;;5026701;28;20029;-58
2023/12/23 14:04:08;;;;;;;31.33;29.38;;;;;;;;;;5027531;28;20218;-51
2023/12/23 14:06:34;;;;;;;28.83;27.33;;;;;;;;;;5021745;28;20029;-55
2023/12/23 14:08:59;;;;;;;28.42;26.92;;;;;;;;;;5025758;28;20036;-55